Time;durP1;ratioP1;P1;durP2;ratioP2;P2;SDS_P1;SDS_P2;PMS_P1;PMS_P2;Temp;Humidity;BMP_temperature;BMP_pressure;BME280_temperature;BME280_humidity;BME280_pressure;Samples;Min_cycle;Max_cycle;Signal;HPM_P1;HPM_P2
2023/07/23 00:01:19;;;;;;;4.53;2.85;;;;;;;18.58;49.59;95416.75;4961328;28;20181;-83
2023/07/23 00:03:44;;;;;;;2.88;2.53;;;;;;;18.55;49.75;95416.31;4947067;28;20199;-83
2023/07/23 00:06:09;;;;;;;2.45;2.25;;;;;;;18.55;49.80;95422.44;4930082;28;20212;-82
2023/07/23 00:08:35;;;;;;;2.88;2.50;;;;;;;18.48;49.86;95420.78;4951233;28;20545;-83
2023/07/23 00:11:00;;;;;;;3.20;2.50;;;;;;;18.56;49.54;95415.34;4974364;28;20193;-84
2023/07/23 00:13:25;;;;;;;3.20;2.83;;;;;;;18.53;49.89;95413.91;4956325;29;20223;-84
2023/07/23 00:15:51;;;;;;;4.05;2.42;;;;;;;18.53;49.64;95416.53;4956300;29;20665;-83
2023/07/23 00:18:16;;;;;;;4.45;2.30;;;;;;;18.65;49.70;95422.88;4938621;28;20237;-83
2023/07/23 00:20:41;;;;;;;2.80;2.50;;;;;;;18.54;49.74;95415.53;4974349;28;20219;-84
2023/07/23 00:23:07;;;;;;;4.70;2.42;;;;;;;18.52;49.93;95419.38;4973352;28;20569;-84
2023/07/23 00:25:32;;;;;;;3.47;2.33;;;;;;;18.56;49.95;95418.78;4940801;28;20227;-84
2023/07/23 00:27:58;;;;;;;3.10;2.38;;;;;;;18.53;49.97;95419.16;4954911;28;20183;-84
2023/07/23 00:30:23;;;;;;;5.55;2.60;;;;;;;18.53;49.97;95416.53;4948124;28;20271;-85
2023/07/23 00:32:49;;;;;;;6.25;2.47;;;;;;;18.48;50.15;95416.34;4956906;28;20205;-84
2023/07/23 00:35:14;;;;;;;3.17;2.30;;;;;;;18.52;50.00;95407.03;4935635;28;20181;-83
2023/07/23 00:37:39;;;;;;;3.85;2.35;;;;;;;18.53;50.09;95415.72;4949035;28;20184;-83
2023/07/23 00:40:05;;;;;;;2.45;2.20;;;;;;;18.48;50.19;95410.28;4955929;28;20188;-84
2023/07/23 00:42:31;;;;;;;3.88;2.80;;;;;;;18.45;50.64;95403.56;4949283;28;20230;-84
2023/07/23 00:44:56;;;;;;;4.22;2.67;;;;;;;18.37;50.87;95403.75;4949046;28;20208;-84
2023/07/23 00:47:21;;;;;;;3.50;2.25;;;;;;;18.44;50.59;95403.78;4956030;28;20212;-83
2023/07/23 00:49:47;;;;;;;4.75;2.20;;;;;;;18.36;50.81;95397.69;4951589;29;20833;-84
2023/07/23 00:52:13;;;;;;;2.47;2.20;;;;;;;18.48;50.67;95405.00;4952316;28;20213;-84
2023/07/23 00:54:38;;;;;;;3.85;2.30;;;;;;;18.47;50.57;95400.78;4951990;28;20280;-83
2023/07/23 00:57:05;;;;;;;3.08;2.40;;;;;;;18.40;50.74;95395.50;4933374;29;20288;-84
2023/07/23 00:59:32;;;;;;;2.92;2.45;;;;;;;18.40;50.83;95401.56;4930366;28;20204;-85
2023/07/23 01:01:58;;;;;;;4.70;2.30;;;;;;;18.39;51.15;95397.31;4942902;28;20228;-84
2023/07/23 01:04:24;;;;;;;2.58;2.28;;;;;;;18.39;50.92;95397.31;4955387;28;20543;-84
2023/07/23 01:06:50;;;;;;;2.83;2.20;;;;;;;18.38;50.97;95390.44;4957004;28;20201;-84
2023/07/23 01:09:16;;;;;;;3.58;2.35;;;;;;;18.39;51.11;95392.06;4955390;28;20728;-84
2023/07/23 01:11:42;;;;;;;5.60;2.95;;;;;;;18.35;51.54;95390.00;4971621;28;20205;-85
2023/07/23 01:14:08;;;;;;;3.20;2.42;;;;;;;18.33;51.46;95392.03;4957259;28;20191;-84
2023/07/23 01:16:33;;;;;;;3.58;2.30;;;;;;;18.37;51.16;95387.97;4952040;28;20192;-84
2023/07/23 01:18:59;;;;;;;3.17;2.42;;;;;;;18.30;51.18;95379.31;4970590;28;20236;-85
2023/07/23 01:21:27;;;;;;;2.90;2.50;;;;;;;18.35;51.23;95382.94;4954593;28;20212;-85
2023/07/23 01:23:52;;;;;;;2.75;2.20;;;;;;;18.30;51.49;95382.72;4961695;28;20199;-84
2023/07/23 01:26:19;;;;;;;3.30;2.63;;;;;;;18.20;51.89;95374.44;4951583;28;20611;-84
2023/07/23 01:28:44;;;;;;;3.40;2.80;;;;;;;18.13;52.03;95372.78;4954690;28;20231;-83
2023/07/23 01:31:12;;;;;;;2.75;2.42;;;;;;;18.19;52.17;95374.59;4945498;28;20264;-84
2023/07/23 01:33:38;;;;;;;3.08;2.40;;;;;;;18.18;52.05;95372.97;4970897;28;20185;-84
2023/07/23 01:36:05;;;;;;;3.42;2.20;;;;;;;18.15;52.18;95368.13;4948292;28;20192;-84
2023/07/23 01:38:30;;;;;;;4.32;2.58;;;;;;;18.14;52.31;95361.25;4956931;28;20185;-84
2023/07/23 01:40:57;;;;;;;3.83;2.53;;;;;;;18.20;51.95;95360.44;4963213;28;20184;-84
2023/07/23 01:43:23;;;;;;;4.13;2.30;;;;;;;18.27;51.64;95366.53;4930686;28;20212;-84
2023/07/23 01:45:48;;;;;;;2.55;2.33;;;;;;;18.38;51.35;95366.78;4970876;28;20213;-85
2023/07/23 01:48:14;;;;;;;2.47;2.15;;;;;;;18.51;51.06;95359.91;4947770;28;20647;-85
2023/07/23 01:50:40;;;;;;;4.70;2.50;;;;;;;18.54;51.08;95357.66;4987517;28;20188;-85
2023/07/23 01:53:06;;;;;;;2.75;2.35;;;;;;;18.67;50.14;95356.91;4938089;28;20342;-85
2023/07/23 01:55:31;;;;;;;2.97;2.30;;;;;;;18.71;50.30;95354.69;4930033;28;20181;-85
2023/07/23 01:57:57;;;;;;;2.58;2.38;;;;;;;18.73;50.61;95364.00;4955771;28;20239;-85
2023/07/23 02:00:22;;;;;;;2.67;2.33;;;;;;;18.53;50.96;95355.25;4953099;28;20695;-84
2023/07/23 02:02:47;;;;;;;3.25;2.38;;;;;;;18.53;50.94;95360.50;4942748;28;20248;-84
2023/07/23 02:05:17;;;;;;;2.35;2.15;;;;;;;18.50;51.08;95353.03;4984360;28;20297;-84
2023/07/23 02:07:43;;;;;;;2.50;2.25;;;;;;;18.50;51.15;95360.91;4967964;28;20193;-84
2023/07/23 02:10:08;;;;;;;3.45;2.60;;;;;;;18.30;51.79;95359.06;4932923;28;20560;-84
2023/07/23 02:12:34;;;;;;;2.40;2.20;;;;;;;18.36;51.42;95358.25;4955507;28;20207;-84
2023/07/23 02:14:59;;;;;;;2.78;2.50;;;;;;;18.33;51.63;95363.94;4956253;28;20256;-84
2023/07/23 02:17:25;;;;;;;3.75;2.17;;;;;;;18.39;51.23;95355.25;4965763;28;20592;-84
2023/07/23 02:19:50;;;;;;;3.00;2.65;;;;;;;18.35;51.63;95364.53;4956060;28;20184;-85
2023/07/23 02:22:16;;;;;;;2.33;2.13;;;;;;;18.27;52.26;95363.91;4953758;28;20212;-84
2023/07/23 02:24:41;;;;;;;4.00;2.20;;;;;;;18.31;51.63;95355.44;4970615;28;20223;-84
2023/07/23 02:27:06;;;;;;;3.13;2.28;;;;;;;18.37;51.38;95354.63;4948451;28;20512;-84
2023/07/23 02:29:32;;;;;;;3.80;2.70;;;;;;;18.29;51.53;95357.47;4949650;28;20238;-84
2023/07/23 02:31:57;;;;;;;2.60;2.30;;;;;;;18.35;51.46;95361.91;4955152;28;20228;-84
2023/07/23 02:34:22;;;;;;;4.60;2.58;;;;;;;18.39;51.44;95359.69;4944546;28;20616;-84
2023/07/23 02:36:48;;;;;;;2.97;2.35;;;;;;;18.25;52.05;95360.69;4968007;28;20185;-83
2023/07/23 02:39:13;;;;;;;3.08;2.50;;;;;;;18.29;51.44;95359.28;4961267;28;20195;-84
2023/07/23 02:41:39;;;;;;;2.63;2.38;;;;;;;18.25;51.86;95352.78;4966960;28;20216;-86
2023/07/23 02:44:05;;;;;;;3.22;2.60;;;;;;;18.32;51.46;95364.13;4970880;28;20177;-85
2023/07/23 02:46:30;;;;;;;2.70;2.13;;;;;;;18.13;52.11;95359.66;4973357;28;20585;-84
2023/07/23 02:48:55;;;;;;;2.80;2.60;;;;;;;18.16;52.12;95357.41;4956737;28;20244;-85
2023/07/23 02:51:21;;;;;;;2.80;2.47;;;;;;;18.15;51.63;95361.06;4957231;28;20279;-85
2023/07/23 05:22:49;;;;;;;4.47;2.78;;;;;;;31.17;26.20;95406.25;4589026;23;20248;-82
2023/07/23 05:25:15;;;;;;;2.60;2.40;;;;;;;31.42;26.56;95409.84;4963603;28;20208;-81
2023/07/23 05:27:40;;;;;;;3.58;2.30;;;;;;;31.04;26.51;95398.88;4941794;28;20665;-82
2023/07/23 05:30:06;;;;;;;2.60;2.40;;;;;;;30.01;27.67;95403.13;4951633;28;20193;-82
2023/07/23 05:32:32;;;;;;;3.65;2.30;;;;;;;31.00;27.17;95401.28;4970985;28;20211;-81
2023/07/23 05:34:57;;;;;;;5.57;2.60;;;;;;;30.75;27.56;95406.06;4965424;28;20648;-82
2023/07/23 05:37:23;;;;;;;4.78;2.90;;;;;;;29.37;29.56;95409.13;4990782;28;20230;-83
2023/07/23 05:39:49;;;;;;;3.00;2.63;;;;;;;29.35;29.50;95397.91;4979036;28;20188;-80
2023/07/23 05:42:14;;;;;;;2.72;2.40;;;;;;;27.56;32.06;95409.09;4992866;28;20215;-83
2023/07/23 05:44:40;;;;;;;3.92;2.95;;;;;;;28.75;30.08;95405.63;5003746;28;20194;-83
2023/07/23 05:47:05;;;;;;;2.78;2.47;;;;;;;30.21;26.55;95406.81;4992004;28;20211;-83
2023/07/23 05:49:30;;;;;;;4.18;2.63;;;;;;;30.67;26.29;95410.13;4991393;28;20243;-81
2023/07/23 05:51:57;;;;;;;4.18;2.53;;;;;;;31.19;25.07;95400.63;4973140;28;20208;-82
2023/07/23 05:54:23;;;;;;;3.80;2.60;;;;;;;30.98;25.58;95405.34;4975514;28;20604;-83
2023/07/23 05:56:49;;;;;;;3.63;2.70;;;;;;;29.03;27.66;95407.00;4976706;28;20176;-82
2023/07/23 05:59:14;;;;;;;3.72;2.70;;;;;;;27.56;30.11;95409.09;4976027;28;20235;-82
2023/07/23 06:01:39;;;;;;;4.25;2.97;;;;;;;26.64;31.36;95397.69;4963891;28;20298;-82
2023/07/23 06:04:05;;;;;;;4.28;3.17;;;;;;;25.58;33.47;95397.97;4943683;28;20711;-82
2023/07/23 06:06:30;;;;;;;3.58;3.28;;;;;;;24.89;34.12;95400.09;4957064;28;20224;-82
2023/07/23 06:08:56;;;;;;;3.08;2.80;;;;;;;25.05;34.91;95401.19;4959963;28;20195;-82
2023/07/23 06:11:22;;;;;;;3.92;2.92;;;;;;;24.73;35.04;95400.88;4963279;28;20195;-82
2023/07/23 06:13:47;;;;;;;3.28;2.97;;;;;;;24.67;35.65;95407.97;4985562;28;20706;-81
2023/07/23 06:16:12;;;;;;;4.20;2.63;;;;;;;24.79;35.62;95407.88;4981900;28;20465;-81
2023/07/23 06:18:38;;;;;;;3.20;2.90;;;;;;;24.67;36.56;95407.16;4986543;28;20729;-81
2023/07/23 06:21:03;;;;;;;3.38;2.65;;;;;;;24.74;36.03;95415.78;4971090;28;20187;-81
2023/07/23 06:23:28;;;;;;;2.95;2.67;;;;;;;24.70;36.40;95418.09;4973516;28;20516;-81
2023/07/23 06:25:54;;;;;;;3.97;2.50;;;;;;;24.92;36.02;95420.88;4989107;28;20580;-80
2023/07/23 06:28:20;;;;;;;4.55;2.80;;;;;;;25.91;34.28;95420.25;4975900;28;20187;-79
2023/07/23 06:30:45;;;;;;;3.13;2.67;;;;;;;25.52;34.12;95422.88;4974398;28;20663;-80
2023/07/23 06:33:11;;;;;;;4.35;2.70;;;;;;;25.72;34.30;95414.44;4974716;28;20351;-80
2023/07/23 06:35:37;;;;;;;3.70;2.30;;;;;;;25.92;34.01;95417.34;4988937;28;20204;-79
2023/07/23 06:38:04;;;;;;;4.20;2.78;;;;;;;25.86;34.17;95407.69;4967141;28;20196;-80
2023/07/23 06:40:29;;;;;;;2.90;2.35;;;;;;;25.22;34.81;95407.28;4970799;28;20552;-80
2023/07/23 06:42:55;;;;;;;2.60;2.40;;;;;;;26.68;32.67;95408.63;4989430;28;20210;-79
2023/07/23 06:45:20;;;;;;;2.90;2.17;;;;;;;26.71;32.69;95410.81;4990474;28;20219;-79
2023/07/23 06:47:45;;;;;;;4.53;2.70;;;;;;;26.46;33.24;95420.13;4973514;28;20192;-80
2023/07/23 06:50:11;;;;;;;6.53;2.42;;;;;;;27.84;30.78;95422.13;4988728;28;20270;-80
2023/07/23 06:52:36;;;;;;;2.33;2.10;;;;;;;28.97;29.11;95410.72;4973896;28;20246;-80
2023/07/23 06:55:01;;;;;;;2.50;2.15;;;;;;;30.16;27.68;95429.09;4956999;28;20651;-81
2023/07/23 06:57:26;;;;;;;2.92;2.05;;;;;;;30.77;26.58;95428.81;4974577;28;20596;-81
2023/07/23 06:59:52;;;;;;;2.40;2.20;;;;;;;31.15;26.27;95419.16;4965678;28;20192;-82
2023/07/23 07:02:17;;;;;;;2.40;2.20;;;;;;;32.00;24.84;95421.34;4990140;28;20211;-85
2023/07/23 07:04:42;;;;;;;2.83;2.53;;;;;;;31.72;25.74;95417.59;4968307;28;20193;-84
2023/07/23 07:07:08;;;;;;;3.00;2.60;;;;;;;31.88;24.63;95412.09;4966248;28;20220;-84
2023/07/23 07:09:33;;;;;;;2.55;2.17;;;;;;;31.67;24.82;95416.84;4957291;28;20817;-84
2023/07/23 07:11:58;;;;;;;3.80;2.88;;;;;;;30.90;25.84;95417.44;4976678;28;20669;-83
2023/07/23 07:14:24;;;;;;;2.80;2.53;;;;;;;30.07;27.07;95428.84;4969923;28;20242;-83
2023/07/23 07:16:49;;;;;;;4.22;2.50;;;;;;;29.12;28.01;95422.50;4990172;28;20173;-83
2023/07/23 07:19:14;;;;;;;3.10;2.20;;;;;;;27.32;30.33;95422.00;4959475;28;20212;-86
2023/07/23 07:21:40;;;;;;;4.70;2.40;;;;;;;26.67;31.99;95407.81;4960356;28;20288;-84
2023/07/23 07:24:06;;;;;;;2.47;2.28;;;;;;;25.72;33.34;95421.59;4960685;28;20214;-85
2023/07/23 07:26:32;;;;;;;2.30;2.10;;;;;;;24.89;34.99;95421.34;4974037;28;20675;-82
2023/07/23 07:28:57;;;;;;;2.58;2.20;;;;;;;23.80;36.46;95416.06;4954481;28;20184;-83
2023/07/23 07:31:22;;;;;;;2.63;1.92;;;;;;;23.61;36.95;95410.09;4958321;28;20574;-85
2023/07/23 07:33:48;;;;;;;2.53;2.33;;;;;;;23.78;37.17;95410.19;4959067;28;20280;-85
2023/07/23 07:36:13;;;;;;;4.07;2.20;;;;;;;23.48;37.96;95409.50;4960385;28;20176;-87
2023/07/23 07:42:24;;;;;;;2.45;2.25;;;;;;;23.83;38.07;95412.94;4952249;28;20201;-83
2023/07/23 07:49:20;;;;;;;3.38;2.38;;;;;;;23.69;38.16;95411.59;4934616;29;20194;-83
2023/07/23 07:51:47;;;;;;;3.50;2.25;;;;;;;23.70;38.16;95415.84;4915003;29;20221;-78
2023/07/23 07:54:12;;;;;;;2.90;2.28;;;;;;;23.73;38.51;95410.06;4929149;29;20273;-81
2023/07/23 07:56:39;;;;;;;2.13;1.88;;;;;;;23.77;38.43;95402.47;4920908;29;20193;-83
2023/07/23 08:58:18;;;;;;;;;;;;;;;;;;;;;
2023/07/23 09:01:00;;;;;;;;;;;;;;;;;;;;;
2023/07/23 09:52:23;;;;;;;2.45;2.25;;;;;;;23.74;41.34;95396.56;3489295;23;20214;-79
2023/07/23 09:54:51;;;;;;;3.40;2.20;;;;;;;24.76;39.97;95393.25;4958098;28;20220;-79
2023/07/23 09:57:16;;;;;;;2.50;2.03;;;;;;;25.46;39.19;95394.63;4962545;28;20276;-81
2023/07/23 09:59:42;;;;;;;2.30;2.10;;;;;;;25.34;37.40;95392.06;4953941;28;20190;-82
2023/07/23 10:02:08;;;;;;;2.35;1.90;;;;;;;26.38;37.52;95387.84;4966619;28;20218;-81
2023/07/23 10:04:35;;;;;;;2.58;1.98;;;;;;;25.75;37.49;95394.50;4992373;28;20183;-81
2023/07/23 10:07:00;;;;;;;3.90;2.20;;;;;;;26.47;37.44;95381.81;4995712;28;20214;-81
2023/07/23 10:09:26;;;;;;;2.53;2.33;;;;;;;26.21;36.36;95387.88;4977083;28;20196;-82
2023/07/23 10:11:51;;;;;;;3.67;2.40;;;;;;;27.15;34.22;95382.16;4995039;28;20203;-82
2023/07/23 10:14:17;;;;;;;2.55;2.20;;;;;;;26.90;34.57;95377.41;4989999;28;20198;-82
2023/07/23 10:16:43;;;;;;;3.10;2.60;;;;;;;27.08;34.76;95389.56;4976705;28;20186;-82
2023/07/23 10:19:09;;;;;;;2.70;2.50;;;;;;;26.35;35.25;95383.00;4979507;28;20193;-81
2023/07/23 10:21:36;;;;;;;4.80;3.13;;;;;;;27.05;34.55;95374.09;4994701;28;20285;-82
2023/07/23 10:24:03;;;;;;;2.80;2.60;;;;;;;25.79;35.50;95374.34;4994421;28;20262;-83
2023/07/23 10:26:43;;;;;;;3.28;2.97;;;;;;;25.93;35.88;95363.09;4973175;28;20243;-84
2023/07/23 10:29:15;;;;;;;3.17;2.50;;;;;;;25.43;36.11;95368.53;4994062;28;20191;-81
2023/07/23 10:31:42;;;;;;;3.15;2.85;;;;;;;26.33;36.23;95356.63;4990068;28;20773;-82
2023/07/23 10:34:23;;;;;;;2.70;2.50;;;;;;;26.50;34.71;95352.03;4971784;28;20183;-82
2023/07/23 10:37:19;;;;;;;3.20;2.90;;;;;;;27.35;33.41;95360.97;4990992;28;20233;-83
2023/07/23 10:39:48;;;;;;;3.13;2.80;;;;;;;27.57;33.72;95362.72;4990589;28;20176;-84
2023/07/23 10:42:35;;;;;;;2.55;2.35;;;;;;;27.94;33.11;95357.31;4994466;28;20206;-83
2023/07/23 10:45:25;;;;;;;3.00;2.70;;;;;;;27.48;33.86;95361.59;5005792;28;20186;-83
2023/07/23 10:47:58;;;;;;;3.17;2.72;;;;;;;27.62;32.85;95360.84;5001233;28;20183;-83
2023/07/23 10:50:25;;;;;;;3.05;2.85;;;;;;;26.82;34.12;95352.03;4970378;28;20556;-83
2023/07/23 10:53:02;;;;;;;2.60;2.40;;;;;;;27.19;33.00;95356.59;4995435;28;20222;-82
2023/07/23 10:55:46;;;;;;;2.95;2.67;;;;;;;27.66;33.07;95366.53;4979635;28;20211;-82
2023/07/23 10:58:13;;;;;;;3.00;2.70;;;;;;;27.78;32.41;95372.44;5008766;28;20174;-83
2023/07/23 11:00:44;;;;;;;4.88;3.40;;;;;;;27.22;32.61;95361.44;4978468;28;20195;-82
2023/07/23 11:03:13;;;;;;;3.03;2.72;;;;;;;27.76;32.20;95358.56;4984747;28;20200;-83
2023/07/23 11:05:40;;;;;;;2.80;2.60;;;;;;;27.45;33.04;95354.91;4978463;28;20206;-82
2023/07/23 11:08:15;;;;;;;4.22;2.80;;;;;;;28.13;31.88;95352.31;4990936;28;20187;-83
2023/07/23 11:10:47;;;;;;;2.72;2.40;;;;;;;27.53;32.77;95364.28;4990926;28;20186;-83
2023/07/23 11:13:13;;;;;;;3.67;2.95;;;;;;;26.87;32.82;95350.47;4992940;28;20207;-83
2023/07/23 11:15:39;;;;;;;3.72;2.80;;;;;;;26.43;33.12;95353.28;5002178;28;20184;-82
2023/07/23 11:18:04;;;;;;;3.35;3.05;;;;;;;26.69;32.95;95352.47;4992531;28;20210;-82
2023/07/23 11:20:31;;;;;;;3.03;2.75;;;;;;;26.26;34.25;95354.16;4993329;28;20180;-82
2023/07/23 11:22:59;;;;;;;3.10;2.80;;;;;;;26.05;34.10;95360.28;4990367;28;20203;-82
2023/07/23 11:25:24;;;;;;;3.30;2.80;;;;;;;26.61;33.82;95358.25;4993148;28;20215;-82
2023/07/23 11:27:50;;;;;;;2.90;2.70;;;;;;;27.00;33.09;95347.38;4994244;28;20638;-83
2023/07/23 11:30:15;;;;;;;2.75;2.55;;;;;;;27.33;32.49;95347.09;5010060;28;20178;-83
2023/07/23 11:32:41;;;;;;;2.92;2.63;;;;;;;27.46;33.03;95345.84;4990795;28;20331;-84
2023/07/23 11:35:09;;;;;;;3.03;2.70;;;;;;;27.22;32.05;95349.97;4977701;28;20197;-83
2023/07/23 11:37:34;;;;;;;4.38;3.10;;;;;;;26.95;32.53;95345.50;4995030;28;20179;-84
2023/07/23 11:40:00;;;;;;;2.70;2.50;;;;;;;26.10;33.94;95348.91;4994930;28;20191;-84
2023/07/23 11:42:25;;;;;;;3.05;2.85;;;;;;;26.41;33.19;95342.06;4998172;28;20268;-83
2023/07/23 11:45:01;;;;;;;2.97;2.78;;;;;;;26.00;33.61;95344.28;5025428;28;20194;-83
2023/07/23 11:47:27;;;;;;;3.75;2.97;;;;;;;25.84;33.92;95342.50;5018409;28;20191;-84
2023/07/23 11:49:52;;;;;;;2.88;2.67;;;;;;;26.05;34.79;95344.31;5030015;28;20175;-83
2023/07/23 11:52:24;;;;;;;3.55;2.78;;;;;;;26.19;34.53;95337.56;5000795;28;20230;-81
2023/07/23 11:54:50;;;;;;;7.05;2.70;;;;;;;25.56;34.13;95333.63;4992218;28;20187;-80
2023/07/23 11:57:16;;;;;;;4.95;2.97;;;;;;;25.07;34.48;95341.44;5005110;28;20179;-79
2023/07/23 11:59:42;;;;;;;3.65;2.85;;;;;;;24.96;34.79;95336.19;4995608;28;20262;-80
2023/07/23 12:02:08;;;;;;;2.88;2.60;;;;;;;25.00;34.78;95346.09;4980043;28;20242;-79
2023/07/23 12:04:37;;;;;;;3.17;2.88;;;;;;;24.50;34.89;95330.94;4996813;28;20258;-80
2023/07/23 12:07:05;;;;;;;3.90;3.45;;;;;;;24.48;34.99;95326.94;4998230;28;20207;-80
2023/07/23 12:09:30;;;;;;;3.30;3.00;;;;;;;24.27;35.92;95315.09;4996361;28;20217;-81
2023/07/23 12:11:56;;;;;;;3.42;3.13;;;;;;;24.56;35.40;95319.38;4998968;28;20230;-81
2023/07/23 12:14:21;;;;;;;3.28;2.97;;;;;;;24.64;35.61;95322.66;4996684;28;20279;-80
2023/07/23 12:17:29;;;;;;;3.50;3.20;;;;;;;24.17;35.54;95320.25;4983945;28;20201;-84
2023/07/23 12:19:54;;;;;;;3.10;2.78;;;;;;;24.27;35.51;95317.75;4984479;28;20199;-78
2023/07/23 12:22:19;;;;;;;3.58;3.00;;;;;;;24.15;36.55;95319.69;5000101;28;20216;-78
2023/07/23 12:24:45;;;;;;;5.50;2.97;;;;;;;24.43;35.65;95311.72;5014724;28;20182;-80
2023/07/23 12:27:10;;;;;;;4.07;3.22;;;;;;;24.65;35.40;95319.78;4993526;28;20207;-79
2023/07/23 12:29:41;;;;;;;3.28;2.97;;;;;;;24.57;35.45;95314.88;5013572;28;20619;-79
2023/07/23 12:32:17;;;;;;;4.03;2.90;;;;;;;24.61;35.48;95315.19;4984769;28;20687;-79
2023/07/23 12:34:44;;;;;;;3.20;2.90;;;;;;;24.83;35.27;95310.78;4994567;28;20270;-80
2023/07/23 12:37:10;;;;;;;4.45;3.13;;;;;;;24.51;35.62;95302.56;4971687;28;20669;-79
2023/07/23 12:39:35;;;;;;;3.50;3.20;;;;;;;24.62;35.89;95303.50;4993080;28;20195;-79
2023/07/23 12:42:01;;;;;;;3.25;2.95;;;;;;;24.82;35.45;95312.59;4980644;28;20313;-80
2023/07/23 12:44:26;;;;;;;3.65;3.30;;;;;;;24.72;35.75;95301.03;4985304;28;20190;-80
2023/07/23 12:46:52;;;;;;;3.40;3.10;;;;;;;25.04;35.27;95296.75;4979194;28;20219;-78
2023/07/23 12:49:17;;;;;;;3.40;2.80;;;;;;;25.36;35.22;95302.25;4996101;28;20214;-78
2023/07/23 12:51:42;;;;;;;3.20;2.92;;;;;;;25.26;34.94;95304.75;5012587;28;20237;-79
2023/07/23 12:54:08;;;;;;;3.58;3.28;;;;;;;25.38;34.79;95299.34;4989662;28;20195;-79
2023/07/23 12:56:33;;;;;;;3.20;2.85;;;;;;;25.13;34.69;95299.81;4982766;28;20194;-79
2023/07/23 12:58:59;;;;;;;3.30;2.95;;;;;;;25.31;35.26;95298.72;4993081;28;20190;-79
2023/07/23 13:01:25;;;;;;;4.32;3.10;;;;;;;25.48;34.91;95294.16;4990079;28;20217;-79
2023/07/23 13:03:50;;;;;;;4.35;3.15;;;;;;;25.42;34.87;95281.84;4997000;28;20186;-78
2023/07/23 13:06:15;;;;;;;4.13;3.50;;;;;;;25.40;34.31;95289.28;5005816;28;20569;-79
2023/07/23 13:08:41;;;;;;;3.60;3.05;;;;;;;25.34;34.51;95303.53;4996131;28;20342;-78
2023/07/23 13:11:07;;;;;;;4.05;3.35;;;;;;;24.90;33.68;95305.28;4980408;28;20345;-79
2023/07/23 13:13:33;;;;;;;4.13;2.90;;;;;;;24.88;33.42;95294.91;4995559;28;20266;-78
2023/07/23 13:15:58;;;;;;;4.80;3.50;;;;;;;24.78;33.56;95294.75;4969696;28;20196;-79
2023/07/23 13:18:24;;;;;;;3.72;3.28;;;;;;;24.86;33.59;95292.50;5007140;28;20627;-79
2023/07/23 13:20:49;;;;;;;4.97;4.57;;;;;;;25.13;34.25;95290.00;5013570;28;20219;-79
2023/07/23 13:23:14;;;;;;;4.28;3.72;;;;;;;25.15;34.11;95303.03;4999120;28;20214;-79
2023/07/23 13:25:40;;;;;;;4.38;3.70;;;;;;;24.89;33.52;95312.44;4997964;28;20204;-80
2023/07/23 13:28:05;;;;;;;5.25;3.97;;;;;;;24.88;32.98;95300.22;5015779;28;20189;-79
2023/07/23 13:30:30;;;;;;;4.82;3.10;;;;;;;24.77;33.05;95299.25;4988267;28;20188;-78
2023/07/23 13:32:55;;;;;;;3.42;3.00;;;;;;;24.67;33.25;95295.66;5001779;28;20331;-78
2023/07/23 13:35:21;;;;;;;3.25;2.95;;;;;;;24.52;33.15;95296.19;4980385;28;20652;-79
2023/07/23 13:37:46;;;;;;;4.05;2.90;;;;;;;24.27;32.46;95286.72;4981368;28;20187;-79
2023/07/23 13:40:11;;;;;;;3.88;2.60;;;;;;;24.14;34.20;95295.00;4995119;28;20199;-79
2023/07/23 13:42:37;;;;;;;3.67;2.90;;;;;;;24.41;33.82;95307.69;4994605;28;20225;-79
2023/07/23 13:45:02;;;;;;;3.20;2.90;;;;;;;24.56;33.65;95297.34;4998011;28;20183;-79
2023/07/23 13:47:28;;;;;;;2.83;2.53;;;;;;;24.41;33.83;95305.03;4997405;28;20223;-78
2023/07/23 13:49:53;;;;;;;2.97;2.70;;;;;;;24.71;33.25;95308.19;4998931;28;20278;-79
2023/07/23 13:52:23;;;;;;;4.28;2.75;;;;;;;24.75;33.54;95313.84;4984823;28;20290;-79
2023/07/23 13:54:51;;;;;;;3.38;2.85;;;;;;;24.94;32.97;95311.72;4979682;28;20225;-79
2023/07/23 13:57:17;;;;;;;2.75;2.55;;;;;;;24.85;33.11;95308.66;4992483;28;20564;-78
2023/07/23 13:59:42;;;;;;;3.33;3.03;;;;;;;24.80;33.57;95311.25;4980006;28;20182;-79
2023/07/23 14:02:07;;;;;;;3.30;3.00;;;;;;;24.83;34.23;95308.91;5010446;28;20219;-78
2023/07/23 14:04:32;;;;;;;3.58;3.05;;;;;;;24.92;34.83;95308.50;4991691;28;20202;-78
2023/07/23 14:06:58;;;;;;;5.10;3.30;;;;;;;25.13;34.60;95299.81;4987543;28;20219;-78
2023/07/23 14:09:23;;;;;;;3.28;2.72;;;;;;;25.68;33.24;95304.25;4978482;28;20586;-78
2023/07/23 14:11:48;;;;;;;4.18;2.90;;;;;;;24.74;34.51;95304.25;4979825;28;20207;-78
2023/07/23 14:14:14;;;;;;;3.85;3.22;;;;;;;24.95;35.02;95306.16;5013818;28;20237;-79
2023/07/23 14:16:39;;;;;;;5.70;3.13;;;;;;;24.46;36.24;95303.25;5007395;28;20216;-77
2023/07/23 14:19:06;;;;;;;5.68;3.25;;;;;;;24.53;36.01;95309.22;4984699;28;20678;-78
2023/07/23 14:21:31;;;;;;;3.40;3.10;;;;;;;24.47;35.87;95298.75;4991095;28;20261;-78
2023/07/23 14:23:56;;;;;;;3.85;3.40;;;;;;;24.38;35.98;95301.00;5012014;28;20244;-79
2023/07/23 14:26:21;;;;;;;4.00;3.60;;;;;;;24.57;36.23;95307.72;4996441;28;20215;-78
2023/07/23 14:28:48;;;;;;;3.40;3.03;;;;;;;24.66;35.28;95307.31;5012502;28;20188;-79
2023/07/23 14:31:13;;;;;;;3.33;2.90;;;;;;;24.39;36.17;95304.47;4987230;28;20245;-78
2023/07/23 14:33:39;;;;;;;2.97;2.67;;;;;;;24.08;36.06;95300.44;4983826;28;20222;-79
2023/07/23 14:36:05;;;;;;;3.78;3.47;;;;;;;24.20;35.94;95303.84;4980139;28;20218;-78
2023/07/23 14:38:30;;;;;;;4.43;3.30;;;;;;;24.24;36.01;95302.34;4976749;28;20598;-78
2023/07/23 14:40:55;;;;;;;4.53;3.10;;;;;;;24.43;36.49;95298.44;5011840;28;20267;-78
2023/07/23 14:43:22;;;;;;;3.67;3.28;;;;;;;24.21;37.17;95294.84;5012375;28;20287;-79
2023/07/23 14:45:47;;;;;;;3.63;3.33;;;;;;;24.36;37.17;95296.97;4998229;28;20203;-78
2023/07/23 14:48:13;;;;;;;3.90;3.33;;;;;;;24.65;36.68;95295.06;4988334;28;20198;-78
2023/07/23 14:50:38;;;;;;;5.93;3.42;;;;;;;24.52;36.98;95289.03;4984937;28;20272;-78
2023/07/23 14:53:03;;;;;;;4.03;3.33;;;;;;;24.61;37.44;95296.59;5002670;28;20723;-79
2023/07/23 14:55:29;;;;;;;4.25;3.40;;;;;;;24.56;37.97;95292.84;5015333;28;20206;-79
2023/07/23 14:57:54;;;;;;;3.50;3.20;;;;;;;24.36;37.81;95299.63;4977187;28;20312;-79
2023/07/23 15:00:19;;;;;;;4.47;3.63;;;;;;;24.56;37.12;95286.72;5014811;28;20244;-79
2023/07/23 15:02:45;;;;;;;3.60;3.30;;;;;;;24.55;36.98;95293.06;5013632;28;20241;-79
2023/07/23 15:05:10;;;;;;;5.20;4.13;;;;;;;24.40;37.31;95298.94;4997907;28;20191;-78
2023/07/23 15:07:36;;;;;;;4.25;3.72;;;;;;;24.14;37.27;95283.59;4988327;28;20211;-78
2023/07/23 15:10:01;;;;;;;3.72;3.38;;;;;;;24.30;36.88;95285.47;4978332;28;20192;-79
2023/07/23 15:12:27;;;;;;;7.97;4.03;;;;;;;24.53;36.80;95280.03;4995201;28;20282;-79
2023/07/23 15:14:53;;;;;;;4.07;3.45;;;;;;;24.56;36.78;95273.44;5011312;28;20191;-78
2023/07/23 15:17:18;;;;;;;4.10;3.70;;;;;;;24.80;35.85;95284.69;5009671;28;20191;-78
2023/07/23 15:19:44;;;;;;;3.50;3.20;;;;;;;24.24;35.38;95275.78;4971290;28;20679;-79
2023/07/23 15:22:10;;;;;;;4.22;3.83;;;;;;;24.05;35.48;95285.81;5000108;28;20416;-79
2023/07/23 15:24:36;;;;;;;6.47;4.03;;;;;;;24.19;35.28;95265.09;4996938;28;20199;-78
2023/07/23 15:27:06;;;;;;;4.40;3.63;;;;;;;23.89;35.79;95270.66;4988105;28;20225;-82
2023/07/23 15:29:36;;;;;;;3.90;3.50;;;;;;;23.83;35.70;95266.31;4986375;28;20726;-82
2023/07/23 15:32:02;;;;;;;3.90;3.50;;;;;;;23.68;36.18;95280.09;4969247;28;20269;-83
2023/07/23 15:34:27;;;;;;;5.53;3.35;;;;;;;23.74;36.83;95279.94;4982965;28;20667;-83
2023/07/23 15:36:52;;;;;;;3.90;3.28;;;;;;;23.80;37.05;95272.88;4992877;28;20183;-84
2023/07/23 15:39:17;;;;;;;4.60;4.18;;;;;;;24.04;36.67;95267.50;4994060;28;20358;-84
2023/07/23 15:41:44;;;;;;;4.88;4.32;;;;;;;23.76;37.57;95276.22;4975178;28;21083;-82
2023/07/23 15:44:12;;;;;;;5.93;4.03;;;;;;;23.81;37.83;95269.19;4966914;28;20306;-81
2023/07/23 15:46:38;;;;;;;4.32;3.88;;;;;;;23.97;38.06;95271.09;4989545;28;20204;-82
2023/07/23 15:49:13;;;;;;;4.30;3.72;;;;;;;24.07;37.54;95273.13;4975914;28;20249;-82
2023/07/23 15:51:44;;;;;;;4.28;3.85;;;;;;;24.26;37.84;95269.19;4975931;28;20215;-83
2023/07/23 15:54:10;;;;;;;5.35;4.63;;;;;;;24.42;37.68;95270.28;4993356;28;20215;-83
2023/07/23 15:56:36;;;;;;;5.00;3.85;;;;;;;24.03;37.90;95269.34;5009221;28;20198;-82
2023/07/23 15:59:06;;;;;;;4.82;3.80;;;;;;;24.05;37.79;95261.13;5011982;28;20179;-81